Shaoyang, China
Current Conditions -  °F | °C
As of 1:00 PM on Thursday 23 Oct 2014 (Local Time) from ZGHA Reporting Station
Scattered Clouds Scattered Clouds  
Wind Chill: 79°   Ceiling: Unl
Heat Index: 79°   Visibility: 6mi
Dew Point: 52°   Wind: 4mph
Humidity: 39%   Direction: 330°NNW
Pressure: 30.06"   Gusts: NA
Location:  27.23°N, 111.47°E
Report Text: ZGHA 230500Z 33002MPS 290V050 9999 SCT040 26/11 Q1018 NOSIG
Loading
Personal Weather Stations






























Interactive Weather Map
Tropical Storm Tracking
New forecast layout! Learn more

10-Day Weather Forecast

Advertisements
Track Severe Weather on mobile